Flight Track Log - Related Links

Times and Time Zones

All times are in EDT time to prevent confusion due to time zone crossing. See the TNV190 flight status page for this flight to view local times or setup timezone preferences in your user account.

Time Position Orientation Groundspeed Altitude Reporting Facility
EDT Latitude Longitude Course Direction KTS MPH feet Rate Location/Type
Fri 03:57:54 PM 58.3167 -152.0000 18° North 220 253 12,000  Level Anchorage Center
Fri 03:58:54 PM 58.3833 -151.9500 21° North 240 276 12,000  Level Anchorage Center
Fri 03:59:54 PM 58.4500 -151.9167 15° North 240 276 12,000  Level Anchorage Center
Fri 04:00:55 PM 58.5167 -151.8833 15° North 240 276 12,000  Level Anchorage Center
Fri 04:01:55 PM 58.5667 -151.8500 19° North 230 265 12,000  Level Anchorage Center
Fri 04:02:00 PM 58.5824 -151.8371 18° North  Level FlightAware Approximate
Fri 04:02:55 PM 58.6333 -151.8000 21° North 230 265 12,000  Level Anchorage Center
Fri 04:03:00 PM 58.6422 -151.7990 18° North  Level FlightAware Approximate
Fri 04:03:56 PM 58.6833 -151.7667 19° North 220 253 12,000  Level Anchorage Center
Fri 04:04:56 PM 58.7500 -151.7167 21° North 230 265 12,000  Level Anchorage Center
Fri 04:05:56 PM 58.8167 -151.6833 15° North 230 265 12,000  Level Anchorage Center
Fri 04:06:57 PM 58.8667 -151.6333 27° Northeast 230 265 12,000  Level Anchorage Center
Fri 04:07:57 PM 58.9333 -151.6167 North 230 265 12,000  Level Anchorage Center
Fri 04:08:57 PM 58.9833 -151.5833 19° North 220 253 12,000  Level Anchorage Center
Fri 04:09:58 PM 59.0500 -151.5333 21° North 230 265 12,000  Level Anchorage Center
Fri 04:10:58 PM 59.1167 -151.5000 14° North 230 265 12,000  Level Anchorage Center
Fri 04:11:58 PM 59.1667 -151.4667 19° North 220 253 12,000  Level Anchorage Center
Fri 04:12:58 PM 59.2333 -151.4333 14° North 230 265 12,000  Level Anchorage Center
Fri 04:13:59 PM 59.2833 -151.3833 27° Northeast 220 253 12,000  Level Anchorage Center
Fri 04:14:59 PM 59.3500 -151.3333 21° North 230 265 12,000  Level Anchorage Center
Fri 04:15:59 PM 59.4167 -151.3000 14° North 230 265 12,000  Level Anchorage Center
Fri 04:17:00 PM 59.4667 -151.2667 19° North 230 265 12,000  Level Anchorage Center
Fri 04:18:00 PM 59.5500 -151.2167 17° North 220 253 12,000  Level Anchorage Center
Fri 04:19:00 PM 59.6000 -151.1833 19° North 230 265 12,000  Level Anchorage Center
Fri 04:20:01 PM 59.6667 -151.1500 14° North 230 265 12,000  Level Anchorage Center
Fri 04:21:01 PM 59.7167 -151.1000 27° Northeast 220 253 12,000  Level Anchorage Center
Fri 04:22:01 PM 59.7833 -151.0667 14° North 220 253 12,000  Level Anchorage Center
Fri 04:23:02 PM 59.8500 -151.0167 21° North 230 265 12,000  Level Anchorage Center
Fri 04:24:02 PM 59.9000 -150.9833 18° North 220 253 12,000  Level Anchorage Center
Fri 04:25:03 PM 59.9667 -150.9500 14° North 220 253 12,000  Level Anchorage Center
Fri 04:26:03 PM 60.0167 -150.9167 18° North 230 265 12,000  Level Anchorage Center
Fri 04:27:03 PM 60.0833 -150.8667 21° North 230 265 12,000 50 Level Anchorage Center
Fri 04:28:04 PM 60.1333 -150.8167 26° Northeast 230 265 12,100  Climbing Anchorage Center
Fri 04:29:04 PM 60.2000 -150.7833 14° North 220 253 12,000 -50 Descending Anchorage Center
Fri 04:30:04 PM 60.2500 -150.7500 18° North 230 265 12,000  Level Anchorage Center
Fri 04:31:04 PM 60.3167 -150.7000 20° North 220 253 12,000  Level Anchorage Center
Fri 04:32:04 PM 60.3667 -150.6500 26° Northeast 230 265 12,000  Level Anchorage Center
Fri 04:33:05 PM 60.4333 -150.6167 14° North 230 265 12,000 -50 Level Anchorage Center
Fri 04:34:05 PM 60.5000 -150.5833 14° North 230 265 11,900 -149 Descending Anchorage Center
Fri 04:35:06 PM 60.5500 -150.5500 18° North 230 265 11,700 -197 Descending Anchorage Center
Fri 04:37:00 PM 60.6593 -150.4494 21° North  Level FlightAware Approximate
Fri 04:44:00 PM 61.0541 -150.0627 26° Northeast  Level FlightAware Approximate
Fri 04:45:00 PM 61.1104 -150.0063 26° Northeast  Level FlightAware Approximate
Fri 04:46:00 PM 61.1667 -149.9502 270° West  Level FlightAware Approximate
Fri 04:47:00 PM 61.1667 -149.9833 270° West  Level FlightAware Approximate
Fri 04:48:00 PM 61.1741 -149.9982 270° West  Level Estimated
Fri 04:49:00 PM 61.1741 -149.9982 270° West  Level Estimated
Fri 04:50:00 PM 61.1741 -149.9982 270° West  Level Estimated
Fri 04:51:00 PM 61.1741 -149.9982 270° West  Level Estimated
Fri 04:52:00 PM 61.1741 -149.9982 270° West  Level Estimated
Fri 04:53:00 PM 61.1741 -149.9982 270° West  Level Estimated
Fri 04:54:00 PM 61.1741 -149.9982 270° West  Level Estimated
Fri 04:55:00 PM 61.1741 -149.9982 270° West  Level Estimated
Fri 04:56:00 PM 61.1741 -149.9982 270° West  Level Estimated
Fri 04:57:00 PM 61.1741 -149.9982 270° West  Level Estimated
Fri 04:58:00 PM 61.1741 -149.9982 270° West  Level Estimated
Fri 04:59:00 PM 61.1741 -149.9982 270° West  Level Estimated
Fri 05:00:00 PM 61.1741 -149.9982 270° West  Level Estimated
Fri 05:01:00 PM 61.1741 -149.9982 270° West  Level Estimated

Login

Don't have an account? Register now (free) for customized features, flight alerts, and more!